Welcome to MDBA River Data.

This website aims to give an overview only of flow and storage information for the River Murray system. Please note that some sites may be off-line and no data is shown. For information from other catchments please contact your relevant state water agency. More information is available at Who does what in the catchments.

Forecasts are only available for sites displaying the forecast symbol.

Some water levels are actually in metres AHD (Australian Height Datum), click individual sites for more details.

Scroll for more >

River gauges, storages, and weirs in the Murray–Darling Basin

Type Location Riversort descending Water level Flow Volume Release Water temp Salinity Rainfall
River Gauge Rochester Campaspe 1.82 m 22/06/2024 23:00 156 ML/Day 22/06/2024 23:00 Not measured Not measured 8.1°C 22/06/2024 22:00 509.6 μS/cm 22/06/2024 23:00 0.00 mm 22/06/2024 22:00 Full data
River Gauge Wilcania Darling 1.58 m 22/06/2024 23:00 1772 ML/Day 22/06/2024 23:00 Not measured Not measured 11.8°C 22/06/2024 23:00 219.3 μS/cm 22/06/2024 8:00 Not measured Full data
Storage Menindee Lakes Darling Not measured Not measured 1057 GL 22/06/2024 9:00 Not measured Not measured Not measured Not measured Full data
River Gauge Weir 32 Upstream Darling 1.43 m 22/06/2024 23:00 382 ML/Day 22/06/2024 23:00 Not measured Not measured 11.8°C 22/06/2024 23:00 374.5 μS/cm 22/06/2024 23:00 Not measured Full data
River Gauge Burtundy Darling 1.12 m 22/06/2024 23:00 1530 ML/Day 22/06/2024 23:00 Not measured Not measured 10.4°C 22/06/2024 23:00 304.6 μS/cm 22/06/2024 8:00 Not measured Full data
Weirs Steven's Weir Upstream Edward 1.33 m 22/06/2024 23:00 Not measured Not measured Not measured Not measured Not measured Not measured Full data
Weirs Steven's Weir Downstream Edward 1.18 m 22/06/2024 23:00 989 ML/Day 22/06/2024 23:00 Not measured Not measured 8.9°C 22/06/2024 23:00 86.4 μS/cm 22/06/2024 8:00 Not measured Full data
River Gauge McCoy Bridge Goulburn 1.58 m 22/06/2024 22:00 1105 ML/Day 22/06/2024 22:00 Not measured Not measured 8.2°C 22/06/2024 22:00 197.7 μS/cm 22/06/2024 22:00 Not measured Full data
River Gauge Bandiana Kiewa 1.21 m 22/06/2024 22:00 794 ML/Day 22/06/2024 22:00 Not measured Not measured 6°C 22/06/2024 22:00 32.2 μS/cm 22/06/2024 22:00 Not measured Full data
River Gauge Kerang Loddon 0.42 m 22/06/2024 22:00 307 ML/Day 22/06/2024 22:00 Not measured Not measured 8.4°C 22/06/2024 22:00 714.7 μS/cm 22/06/2024 22:00 Not measured Full data
River Gauge Hinnomunjie Mitta 0.79 m 22/06/2024 22:00 520 ML/Day 22/06/2024 22:00 Not measured Not measured 4°C 22/06/2024 22:00 60.7 μS/cm 22/06/2024 22:00 0.00 mm 22/06/2024 22:00 Full data
Storage Dartmouth Dam Mitta 482.61 m 22/06/2024 22:00 Not measured 3638 GL 22/06/2024 22:00 Not measured Not measured Not measured Not measured Full data
River Gauge Colemans Mitta 1.18 m 22/06/2024 22:00 481 ML/Day 22/06/2024 22:00 Not measured Not measured 8.9°C 22/06/2024 22:00 49.4 μS/cm 22/06/2024 22:00 Not measured Full data
River Gauge Tallandoon Mitta 1.44 m 22/06/2024 22:00 659 ML/Day 22/06/2024 22:00 Not measured Not measured 7.3°C 22/06/2024 22:00 59.6 μS/cm 22/06/2024 22:00 Not measured Full data
River Gauge Redcliffs Murray Not measured Not measured Not measured Not measured Not measured 223.3 μS/cm 22/06/2024 8:00 Not measured Full data
River Gauge Barmah Murray 1.39 m 22/06/2024 22:00 2743 ML/Day 22/06/2024 22:00 Not measured Not measured Not measured Not measured Not measured Full data
River Gauge Biggara Murray 0.38 m 22/06/2024 23:00 413 ML/Day 22/06/2024 23:00 Not measured Not measured 4.1°C 22/06/2024 23:00 64.4 μS/cm 22/06/2024 23:00 0.00 mm 22/06/2024 22:00 Full data
River Gauge Bringenbrong Bridge Murray 1.54 m 22/06/2024 23:00 3978 ML/Day 22/06/2024 23:00 Not measured Not measured Not measured Not measured Not measured Full data
River Gauge Pinegrove Murray 1.13 m 22/06/2024 23:00 271 ML/Day 22/06/2024 23:00 Not measured Not measured 5.4°C 22/06/2024 23:00 85.2 μS/cm 22/06/2024 23:00 0.00 mm 22/06/2024 22:00 Full data
River Gauge Jingellic Murray 1.81 m 22/06/2024 22:00 5215 ML/Day 22/06/2024 22:00 Not measured Not measured 8.3°C 22/06/2024 22:00 32.5 μS/cm 22/06/2024 22:00 0.00 mm 22/06/2024 22:00 Full data
Storage Hume Dam Murray 186.29 m 22/06/2024 23:00 Not measured 1982 GL 22/06/2024 23:00 2231.4 ML/d22/06/2024 23:00 Not measured Not measured 0.00 mm 22/06/2024 23:00 Full data
River Gauge Doctors Point Murray 1.83 m 22/06/2024 23:00 3158 ML/Day 22/06/2024 23:00 Not measured Not measured 10.4°C 22/06/2024 23:00 57.4 μS/cm 22/06/2024 23:00 Not measured Full data
River Gauge Albury (Union Bridge) Murray 0.96 m 22/06/2024 23:00 Not measured Not measured Not measured 10.3°C 22/06/2024 23:00 58.4 μS/cm 22/06/2024 23:00 Not measured Full data
River Gauge Corowa Murray 1.45 m 22/06/2024 23:00 4854 ML/Day 22/06/2024 23:00 Not measured Not measured 9.8°C 22/06/2024 23:00 61.5 μS/cm 22/06/2024 23:00 Not measured Full data
Weirs Yarrawonga Weir Upstream Murray 123.74 m 22/06/2024 22:00 Not measured Not measured Not measured Not measured Not measured 0.00 mm 22/06/2024 22:00 Full data
Weirs Yarrawonga Weir Downstream Murray 0.85 m 22/06/2024 23:00 4327 ML/Day 22/06/2024 23:00 Not measured Not measured 9.2°C 22/06/2024 23:00 78.9 μS/cm 22/06/2024 8:00 Not measured Full data
River Gauge Yarrawonga Main Channel Murray 0.00 m 22/06/2024 22:00 Not measured Not measured 0.00 ML/d22/06/2024 22:00 Not measured Not measured Not measured Full data
River Gauge Mulwala Canal Murray Not measured Not measured Not measured 0.00 ML/d22/06/2024 8:00 Not measured Not measured Not measured Full data
River Gauge Tocumwal Murray 1.41 m 22/06/2024 22:00 3854 ML/Day 22/06/2024 22:00 Not measured Not measured 9.1°C 22/06/2024 22:00 72.2 μS/cm 22/06/2024 22:00 Not measured Full data
River Gauge Edward River Offtake Murray 1.58 m 22/06/2024 23:00 583 ML/Day 22/06/2024 23:00 Not measured Not measured 9.3°C 22/06/2024 23:00 77.1 μS/cm 22/06/2024 8:00 Not measured Full data
River Gauge Gulpa Creek Offtake Murray 2.03 m 22/06/2024 23:00 175 ML/Day 22/06/2024 23:00 Not measured Not measured Not measured Not measured Not measured Full data
River Gauge Echuca Wharf Murray 86.32 m 22/06/2024 21:00 Not measured Not measured Not measured Not measured Not measured Not measured Full data
Weirs Torrumbarry Weir Downstream Murray 1.41 m 22/06/2024 22:00 3564 ML/Day 22/06/2024 22:00 Not measured Not measured 9.6°C 22/06/2024 22:00 107.7 μS/cm 22/06/2024 22:00 Not measured Full data
Weirs Torrumbarry Weir Upstream Murray 86.05 m 22/06/2024 22:00 Not measured 37 GL 22/06/2024 9:00 Not measured 9.4°C 22/06/2024 9:00 107.8 μS/cm 22/06/2024 21:00 0.00 mm 22/06/2024 9:00 Full data
River Gauge Torrumbarry Headworks Murray 83.69 m 22/06/2024 23:00 Not measured Not measured 473.4 ML/d22/06/2024 23:00 Not measured Not measured Not measured Full data
River Gauge Stoney Crossing Murray 1.33 m 22/06/2024 23:00 351 ML/Day 22/06/2024 8:00 Not measured Not measured 9.2°C 22/06/2024 23:00 670 μS/cm 22/06/2024 23:00 Not measured Full data
River Gauge Swan Hill Murray 1.01 m 22/06/2024 22:00 3947 ML/Day 22/06/2024 22:00 Not measured Not measured 9.2°C 22/06/2024 22:00 146.8 μS/cm 22/06/2024 22:00 Not measured Full data
River Gauge Wakool Junction Murray 2.79 m 22/06/2024 22:00 6017 ML/Day 22/06/2024 22:00 Not measured Not measured 9.3°C 22/06/2024 22:00 153.7 μS/cm 22/06/2024 22:00 Not measured Full data
Weirs Euston Weir Upstream Murray 47.6 m 21/06/2024 9:00 Not measured 37 GL 21/06/2024 8:00 Not measured Not measured Not measured Not measured Full data
Weirs Euston Weir Downstream Murray 43.31 m 22/06/2024 22:00 7169 ML/Day 22/06/2024 22:00 Not measured Not measured 10.2°C 22/06/2024 22:00 199.1 μS/cm 22/06/2024 22:00 Not measured Full data
River Gauge Colignan Murray 2.09 m 22/06/2024 22:00 6986 ML/Day 22/06/2024 22:00 Not measured Not measured 10.7°C 22/06/2024 22:00 184.2 μS/cm 22/06/2024 22:00 Not measured Full data
Weirs Mildura Weir downstream Murray 30.8 m 22/06/2024 22:00 Not measured Not measured Not measured 10.8°C 22/06/2024 22:00 226.1 μS/cm 22/06/2024 22:00 Not measured Full data
Weirs Lock 9 Downstream Murray 24.55 m 22/06/2024 22:00 Not measured Not measured Not measured Not measured Not measured Not measured Full data
Weirs Lock 9 Upstream Murray 27.47 m 22/06/2024 22:00 Not measured Not measured Not measured 11.5°C 22/06/2024 22:00 400.8 μS/cm 22/06/2024 22:00 Not measured Full data
Weirs Lock 8 Upstream Murray 24.56 m 22/06/2024 21:00 Not measured Not measured Not measured 11.7°C 22/06/2024 21:00 366 μS/cm 22/06/2024 21:00 Not measured Full data
River Gauge Frenchman Creek Murray 27.18 m 21/06/2024 8:00 Not measured Not measured 6713.5 ML/d21/06/2024 8:00 Not measured Not measured Not measured Full data
Storage Lake Victoria Murray 25.42 m 22/06/2024 21:00 Not measured 493 GL 22/06/2024 21:00 Not measured 11.5°C 22/06/2024 21:00 307.9 μS/cm 22/06/2024 21:00 Not measured Full data
River Gauge Rufus River Murray 20.08 m 21/06/2024 8:00 Not measured Not measured 695.2 ML/d21/06/2024 8:00 Not measured 336.3 μS/cm 22/06/2024 21:00 Not measured Full data
Weirs Lock 7 Downstream Murray 19.94 m 22/06/2024 22:00 Not measured Not measured Not measured Not measured Not measured Not measured Full data
Weirs Lock 7 Upstream Murray 22.05 m 22/06/2024 22:00 Not measured Not measured Not measured 11.8°C 22/06/2024 22:00 294.1 μS/cm 22/06/2024 22:00 Not measured Full data
River Gauge Flow to South Australia Murray Not measured Not measured Not measured 4351.4 ML/d21/06/2024 9:00 Not measured Not measured Not measured Full data
Weirs Lock 6 Downstream Murray 16.27 m 22/06/2024 22:00 Not measured Not measured Not measured Not measured Not measured Not measured Full data
Weirs Lock 6 Upstream Murray 19.21 m 22/06/2024 22:00 Not measured Not measured Not measured 0.00°C 22/06/2024 22:00 0.00 μS/cm 22/06/2024 22:00 Not measured Full data
Weirs Lock 5 Downstream Murray 13.28 m 22/06/2024 22:00 Not measured Not measured Not measured Not measured Not measured Not measured Full data
Weirs Lock 5 Upstream Murray 16.28 m 22/06/2024 22:00 Not measured Not measured Not measured 12.1°C 22/06/2024 22:00 423.5 μS/cm 22/06/2024 22:00 Not measured Full data
Weirs Lock 4 Downstream Murray 10.26 m 22/06/2024 22:00 Not measured Not measured Not measured Not measured Not measured Not measured Full data
Weirs Lock 4 Upstream Murray 13.19 m 22/06/2024 22:00 Not measured Not measured Not measured Not measured Not measured Not measured Full data
Weirs Lock 3 Downstream Murray 6.28 m 22/06/2024 21:00 Not measured Not measured Not measured Not measured Not measured Not measured Full data
Weirs Lock 3 Upstream Murray 9.8 m 22/06/2024 20:00 Not measured Not measured Not measured Not measured Not measured Not measured Full data
Weirs Lock 2 Downstream Murray 3.37 m 22/06/2024 21:00 Not measured Not measured Not measured Not measured Not measured Not measured Full data
Weirs Lock 2 Upstream Murray 6.1 m 22/06/2024 21:00 Not measured Not measured Not measured 12.3°C 22/06/2024 21:00 456.5 μS/cm 22/06/2024 21:00 Not measured Full data
River Gauge Morgan Downstream Murray Not measured Not measured Not measured 1129.7 ML/d22/06/2024 21:00 Not measured 432.3 μS/cm 22/06/2024 21:00 Not measured Full data
Weirs Lock 1 Downstream Murray 0.72 m 22/06/2024 21:00 Not measured Not measured 4702.8 ML/d21/06/2024 9:00 Not measured Not measured Not measured Full data
Weirs Lock 1 Upstream Murray 3.23 m 22/06/2024 21:00 Not measured Not measured Not measured 12.7°C 22/06/2024 21:00 460.9 μS/cm 22/06/2024 21:00 Not measured Full data
River Gauge Murray Bridge Murray 0.74 m 22/06/2024 21:00 Not measured Not measured Not measured 12.7°C 22/06/2024 21:00 579.7 μS/cm 22/06/2024 21:00 Not measured Full data
River Gauge Lake Alexandrina Murray 0.75 m 22/06/2024 23:00 Not measured 1611 GL 22/06/2024 23:00 Not measured Not measured 455.5 μS/cm 22/06/2024 21:00 Not measured Full data
River Gauge Lake Albert Murray 0.76 m 22/06/2024 23:00 Not measured 272 GL 22/06/2024 23:00 Not measured Not measured Not measured Not measured Full data
River Gauge Tauwitchere Barrage Murray 0.76 m 22/06/2024 21:00 Not measured Not measured Not measured Not measured Not measured Not measured Full data
River Gauge Mundoo Barrage Murray 0.75 m 21/06/2024 8:00 Not measured Not measured Not measured Not measured Not measured Not measured Full data
Weirs Wentworth Weir Murray 27.85 m 22/06/2024 23:00 Not measured Not measured 7310.5 ML/d21/06/2024 8:00 Not measured 232 μS/cm 21/06/2024 9:00 Not measured Full data
River Gauge Balranald Murrumbidgee 0.88 m 22/06/2024 23:00 527 ML/Day 22/06/2024 23:00 Not measured Not measured 9.6°C 22/06/2024 23:00 224.3 μS/cm 22/06/2024 23:00 Not measured Full data
River Gauge Peechelba Ovens 126.54 m 22/06/2024 22:00 647 ML/Day 22/06/2024 22:00 Not measured Not measured 7°C 22/06/2024 22:00 72.5 μS/cm 22/06/2024 22:00 Not measured Full data
River Gauge Edward Escape Wakool -1.2 m 22/06/2024 23:00 0.00 ML/Day 22/06/2024 8:00 Not measured Not measured 7°C 22/06/2024 23:00 0.00 μS/cm 22/06/2024 8:00 Not measured Full data
River Gauge Wakool Canal Wakool -0.06 m 22/06/2024 23:00 Not measured Not measured 0.00 ML/d21/06/2024 9:00 Not measured Not measured Not measured Full data